sensor_id;sensor_type;location;lat;lon;timestamp;pressure;altitude;pressure_sealevel;temperature;humidity
5298;BME280;14738;42.668;23.250;2023-04-19T00:01:12;48469.72;;;-141.90;62.59
5298;BME280;14738;42.668;23.250;2023-04-19T00:03:38;48439.94;;;-141.90;61.79
5298;BME280;14738;42.668;23.250;2023-04-19T00:06:03;48457.81;;;-141.90;61.50
5298;BME280;14738;42.668;23.250;2023-04-19T00:08:28;48467.72;;;-141.90;61.00
5298;BME280;14738;42.668;23.250;2023-04-19T00:10:54;48473.69;;;-141.90;61.20
5298;BME280;14738;42.668;23.250;2023-04-19T00:13:19;48473.69;;;-141.90;61.08
5298;BME280;14738;42.668;23.250;2023-04-19T00:15:46;48465.75;;;-141.90;60.75
5298;BME280;14738;42.668;23.250;2023-04-19T00:18:11;48481.63;;;-141.90;61.91
5298;BME280;14738;42.668;23.250;2023-04-19T00:20:37;48481.63;;;-141.90;63.38
5298;BME280;14738;42.668;23.250;2023-04-19T00:23:03;48447.88;;;-141.90;64.01
5298;BME280;14738;42.668;23.250;2023-04-19T00:25:28;48461.78;;;-141.90;64.27
5298;BME280;14738;42.668;23.250;2023-04-19T00:27:56;48483.59;;;-141.90;64.94
5298;BME280;14738;42.668;23.250;2023-04-19T00:30:21;48430.00;;;-141.90;65.35
5298;BME280;14738;42.668;23.250;2023-04-19T00:32:47;48485.59;;;-141.90;65.75
5298;BME280;14738;42.668;23.250;2023-04-19T00:35:12;48483.59;;;-141.90;65.68
5298;BME280;14738;42.668;23.250;2023-04-19T00:37:38;48467.72;;;-141.90;66.20
5298;BME280;14738;42.668;23.250;2023-04-19T00:40:04;48461.78;;;-141.90;66.06
5298;BME280;14738;42.668;23.250;2023-04-19T00:42:30;48398.25;;;-141.90;65.65
5298;BME280;14738;42.668;23.250;2023-04-19T00:44:55;48463.75;;;-141.90;65.05
5298;BME280;14738;42.668;23.250;2023-04-19T00:47:20;48465.75;;;-141.90;64.94
5298;BME280;14738;42.668;23.250;2023-04-19T00:49:46;48457.81;;;-141.90;63.04
5298;BME280;14738;42.668;23.250;2023-04-19T00:52:11;48457.81;;;-141.90;62.36
5298;BME280;14738;42.668;23.250;2023-04-19T00:54:37;48447.88;;;-141.90;62.76
5298;BME280;14738;42.668;23.250;2023-04-19T00:57:05;48457.81;;;-141.90;62.92
5298;BME280;14738;42.668;23.250;2023-04-19T00:59:31;48467.72;;;-141.90;64.55
5298;BME280;14738;42.668;23.250;2023-04-19T01:01:58;48481.63;;;-141.90;65.67
5298;BME280;14738;42.668;23.250;2023-04-19T01:04:24;48469.72;;;-141.90;65.42
5298;BME280;14738;42.668;23.250;2023-04-19T01:06:49;48467.72;;;-141.90;65.08
5298;BME280;14738;42.668;23.250;2023-04-19T01:09:15;48471.69;;;-141.90;64.84
5298;BME280;14738;42.668;23.250;2023-04-19T01:11:40;48467.72;;;-141.90;65.28
5298;BME280;14738;42.668;23.250;2023-04-19T01:14:06;48465.75;;;-141.90;66.00
5298;BME280;14738;42.668;23.250;2023-04-19T01:16:31;48465.75;;;-141.90;68.81
5298;BME280;14738;42.668;23.250;2023-04-19T01:18:57;48453.81;;;-141.90;69.96
5298;BME280;14738;42.668;23.250;2023-04-19T01:21:23;48453.81;;;-141.90;71.83
5298;BME280;14738;42.668;23.250;2023-04-19T01:23:48;48473.69;;;-141.90;74.09
5298;BME280;14738;42.668;23.250;2023-04-19T01:26:14;48453.81;;;-141.90;75.40
5298;BME280;14738;42.668;23.250;2023-04-19T01:28:40;48467.72;;;-141.90;75.55
5298;BME280;14738;42.668;23.250;2023-04-19T01:31:05;48487.56;;;-141.90;75.80
5298;BME280;14738;42.668;23.250;2023-04-19T01:33:31;48469.72;;;-141.90;75.65
5298;BME280;14738;42.668;23.250;2023-04-19T01:35:56;48475.66;;;-141.90;75.56
5298;BME280;14738;42.668;23.250;2023-04-19T01:38:22;48457.81;;;-141.90;75.29
5298;BME280;14738;42.668;23.250;2023-04-19T01:40:47;48447.88;;;-141.90;75.27
5298;BME280;14738;42.668;23.250;2023-04-19T01:43:15;48501.47;;;-141.90;75.05
5298;BME280;14738;42.668;23.250;2023-04-19T01:45:40;48469.72;;;-141.90;74.72
5298;BME280;14738;42.668;23.250;2023-04-19T01:48:06;48473.69;;;-141.90;74.21
5298;BME280;14738;42.668;23.250;2023-04-19T01:50:31;48485.59;;;-141.90;73.97
5298;BME280;14738;42.668;23.250;2023-04-19T01:52:57;48479.63;;;-141.90;73.97
5298;BME280;14738;42.668;23.250;2023-04-19T01:55:23;48467.72;;;-141.90;73.72
5298;BME280;14738;42.668;23.250;2023-04-19T01:57:48;48453.81;;;-141.90;73.85
5298;BME280;14738;42.668;23.250;2023-04-19T02:00:14;48467.72;;;-141.90;74.52
5298;BME280;14738;42.668;23.250;2023-04-19T02:02:40;48461.78;;;-141.90;77.50
5298;BME280;14738;42.668;23.250;2023-04-19T02:05:06;48473.69;;;-141.90;77.86
5298;BME280;14738;42.668;23.250;2023-04-19T02:07:32;48483.59;;;-141.90;78.38
5298;BME280;14738;42.668;23.250;2023-04-19T02:09:58;48475.66;;;-141.90;78.65
5298;BME280;14738;42.668;23.250;2023-04-19T02:12:27;48447.88;;;-141.90;78.27
5298;BME280;14738;42.668;23.250;2023-04-19T02:14:53;48459.78;;;-141.90;78.60
5298;BME280;14738;42.668;23.250;2023-04-19T02:17:22;48453.81;;;-141.90;77.50
5298;BME280;14738;42.668;23.250;2023-04-19T02:19:47;48451.84;;;-141.90;77.13
5298;BME280;14738;42.668;23.250;2023-04-19T02:22:13;48437.94;;;-141.90;77.26
5298;BME280;14738;42.668;23.250;2023-04-19T02:24:38;48477.66;;;-141.90;77.13
5298;BME280;14738;42.668;23.250;2023-04-19T02:27:03;48473.69;;;-141.90;78.44
5298;BME280;14738;42.668;23.250;2023-04-19T02:29:29;48465.75;;;-141.90;79.68
5298;BME280;14738;42.668;23.250;2023-04-19T02:31:54;48461.78;;;-141.90;94.66
5298;BME280;14738;42.668;23.250;2023-04-19T02:34:20;48477.66;;;-141.90;99.09
5298;BME280;14738;42.668;23.250;2023-04-19T02:36:45;48487.56;;;-141.90;99.12
5298;BME280;14738;42.668;23.250;2023-04-19T02:39:10;48475.66;;;-141.90;98.49
5298;BME280;14738;42.668;23.250;2023-04-19T02:41:36;48473.69;;;-141.90;98.31
5298;BME280;14738;42.668;23.250;2023-04-19T02:44:01;48489.56;;;-141.90;98.96
5298;BME280;14738;42.668;23.250;2023-04-19T02:46:27;48469.72;;;-141.90;99.27
5298;BME280;14738;42.668;23.250;2023-04-19T02:48:52;48461.78;;;-141.90;99.42
5298;BME280;14738;42.668;23.250;2023-04-19T02:51:18;48493.53;;;-141.90;99.30
5298;BME280;14738;42.668;23.250;2023-04-19T02:53:43;48455.81;;;-141.90;99.56
5298;BME280;14738;42.668;23.250;2023-04-19T02:56:08;48467.72;;;-141.90;98.92
5298;BME280;14738;42.668;23.250;2023-04-19T02:58:34;48447.88;;;-141.90;99.10
5298;BME280;14738;42.668;23.250;2023-04-19T03:01:00;48441.91;;;-141.90;99.77
5298;BME280;14738;42.668;23.250;2023-04-19T03:03:25;48481.63;;;-141.90;99.74
5298;BME280;14738;42.668;23.250;2023-04-19T03:05:51;48497.50;;;-141.90;99.82
5298;BME280;14738;42.668;23.250;2023-04-19T03:08:16;48479.63;;;-141.90;99.70
5298;BME280;14738;42.668;23.250;2023-04-19T03:10:42;48469.72;;;-141.90;99.84
5298;BME280;14738;42.668;23.250;2023-04-19T03:13:07;48453.81;;;-141.90;100.00
5298;BME280;14738;42.668;23.250;2023-04-19T03:15:33;48485.59;;;-141.90;99.77
5298;BME280;14738;42.668;23.250;2023-04-19T03:17:58;48461.78;;;-141.90;100.00
5298;BME280;14738;42.668;23.250;2023-04-19T03:20:23;48432.00;;;-141.90;99.77
5298;BME280;14738;42.668;23.250;2023-04-19T03:22:49;48467.72;;;-141.90;100.00
5298;BME280;14738;42.668;23.250;2023-04-19T03:25:15;48477.66;;;-141.90;100.00
5298;BME280;14738;42.668;23.250;2023-04-19T03:27:41;48453.81;;;-141.90;99.77
5298;BME280;14738;42.668;23.250;2023-04-19T03:30:10;48473.69;;;-141.90;100.00
5298;BME280;14738;42.668;23.250;2023-04-19T03:32:36;48497.50;;;-141.90;100.00
5298;BME280;14738;42.668;23.250;2023-04-19T03:35:01;48445.88;;;-141.90;100.00
5298;BME280;14738;42.668;23.250;2023-04-19T03:37:27;48497.50;;;-141.90;99.65
5298;BME280;14738;42.668;23.250;2023-04-19T03:39:52;48493.53;;;-141.90;99.79
5298;BME280;14738;42.668;23.250;2023-04-19T03:42:17;48485.59;;;-141.90;100.00
5298;BME280;14738;42.668;23.250;2023-04-19T03:44:43;48471.69;;;-141.90;99.51
5298;BME280;14738;42.668;23.250;2023-04-19T03:47:08;48457.81;;;-141.90;100.00
5298;BME280;14738;42.668;23.250;2023-04-19T03:49:33;48463.75;;;-141.90;100.00
5298;BME280;14738;42.668;23.250;2023-04-19T03:51:59;48481.63;;;-141.90;99.55
5298;BME280;14738;42.668;23.250;2023-04-19T03:54:24;48485.59;;;-141.90;99.02
5298;BME280;14738;42.668;23.250;2023-04-19T03:56:50;48451.84;;;-141.90;99.75
5298;BME280;14738;42.668;23.250;2023-04-19T03:59:16;48467.72;;;-141.90;100.00
5298;BME280;14738;42.668;23.250;2023-04-19T04:01:42;48445.88;;;-141.90;99.81
5298;BME280;14738;42.668;23.250;2023-04-19T04:04:07;48461.78;;;-141.90;99.88
5298;BME280;14738;42.668;23.250;2023-04-19T04:06:33;48477.66;;;-141.90;100.00
5298;BME280;14738;42.668;23.250;2023-04-19T04:09:00;48463.75;;;-141.90;100.00
5298;BME280;14738;42.668;23.250;2023-04-19T04:11:25;48461.78;;;-141.90;99.43
5298;BME280;14738;42.668;23.250;2023-04-19T04:13:51;48451.84;;;-141.90;98.45
5298;BME280;14738;42.668;23.250;2023-04-19T04:16:16;48467.72;;;-141.90;98.53
5298;BME280;14738;42.668;23.250;2023-04-19T04:18:42;48457.81;;;-141.90;98.62
5298;BME280;14738;42.668;23.250;2023-04-19T04:21:07;48473.69;;;-141.90;97.89
5298;BME280;14738;42.668;23.250;2023-04-19T04:23:33;48499.50;;;-141.90;96.73
5298;BME280;14738;42.668;23.250;2023-04-19T04:25:58;48461.78;;;-141.90;96.81
5298;BME280;14738;42.668;23.250;2023-04-19T04:28:29;48445.88;;;-141.90;96.97
5298;BME280;14738;42.668;23.250;2023-04-19T04:30:56;48495.53;;;-141.90;97.84
5298;BME280;14738;42.668;23.250;2023-04-19T04:33:26;48489.56;;;-141.90;97.81
5298;BME280;14738;42.668;23.250;2023-04-19T04:35:54;48449.84;;;-141.90;97.71
5298;BME280;14738;42.668;23.250;2023-04-19T04:38:20;48447.88;;;-141.90;97.73
5298;BME280;14738;42.668;23.250;2023-04-19T04:40:50;48477.66;;;-141.90;96.44
5298;BME280;14738;42.668;23.250;2023-04-19T04:43:18;48437.94;;;-141.90;96.76
5298;BME280;14738;42.668;23.250;2023-04-19T04:45:46;48477.66;;;-141.90;96.13
5298;BME280;14738;42.668;23.250;2023-04-19T04:48:11;48433.97;;;-141.90;94.08
5298;BME280;14738;42.668;23.250;2023-04-19T04:50:37;48445.88;;;-141.90;94.21
5298;BME280;14738;42.668;23.250;2023-04-19T04:53:02;48469.72;;;-141.90;95.00
5298;BME280;14738;42.668;23.250;2023-04-19T04:55:27;48473.69;;;-141.90;95.74
5298;BME280;14738;42.668;23.250;2023-04-19T04:57:53;48473.69;;;-141.90;97.55
5298;BME280;14738;42.668;23.250;2023-04-19T05:00:18;48485.59;;;-141.90;97.19
5298;BME280;14738;42.668;23.250;2023-04-19T05:02:44;48461.78;;;-141.90;97.08
5298;BME280;14738;42.668;23.250;2023-04-19T05:05:09;48465.75;;;-141.90;96.49
5298;BME280;14738;42.668;23.250;2023-04-19T05:07:38;48453.81;;;-141.90;96.81
5298;BME280;14738;42.668;23.250;2023-04-19T05:10:04;48445.88;;;-141.90;96.81
5298;BME280;14738;42.668;23.250;2023-04-19T05:12:30;48465.75;;;-141.90;96.83
5298;BME280;14738;42.668;23.250;2023-04-19T05:14:55;48457.81;;;-141.90;96.58
5298;BME280;14738;42.668;23.250;2023-04-19T05:17:20;48461.78;;;-141.90;97.08
5298;BME280;14738;42.668;23.250;2023-04-19T05:19:46;48479.63;;;-141.90;97.45
5298;BME280;14738;42.668;23.250;2023-04-19T05:22:11;48493.53;;;-141.90;96.83
5298;BME280;14738;42.668;23.250;2023-04-19T05:24:37;48477.66;;;-141.90;95.80
5298;BME280;14738;42.668;23.250;2023-04-19T05:27:02;48481.63;;;-141.90;94.20
5298;BME280;14738;42.668;23.250;2023-04-19T05:29:27;48465.75;;;-141.90;94.35
5298;BME280;14738;42.668;23.250;2023-04-19T05:31:53;48453.81;;;-141.90;93.52
5298;BME280;14738;42.668;23.250;2023-04-19T05:34:18;48447.88;;;-141.90;93.42
5298;BME280;14738;42.668;23.250;2023-04-19T05:36:44;48465.75;;;-141.90;92.76
5298;BME280;14738;42.668;23.250;2023-04-19T05:39:09;48445.88;;;-141.90;92.94
5298;BME280;14738;42.668;23.250;2023-04-19T05:41:34;48461.78;;;-141.90;92.98
5298;BME280;14738;42.668;23.250;2023-04-19T05:44:00;48451.84;;;-141.90;92.62
5298;BME280;14738;42.668;23.250;2023-04-19T05:46:25;48481.63;;;-141.90;92.67
5298;BME280;14738;42.668;23.250;2023-04-19T05:48:51;48451.84;;;-141.90;91.68
5298;BME280;14738;42.668;23.250;2023-04-19T05:51:16;48483.59;;;-141.90;91.21
5298;BME280;14738;42.668;23.250;2023-04-19T05:53:43;48469.72;;;-141.90;90.68
5298;BME280;14738;42.668;23.250;2023-04-19T05:56:09;48491.56;;;-141.90;92.24
5298;BME280;14738;42.668;23.250;2023-04-19T05:58:34;48491.56;;;-141.90;92.41
5298;BME280;14738;42.668;23.250;2023-04-19T06:01:01;48477.66;;;-141.90;92.09
5298;BME280;14738;42.668;23.250;2023-04-19T06:03:27;48477.66;;;-141.90;92.49
5298;BME280;14738;42.668;23.250;2023-04-19T06:05:52;48489.56;;;-141.90;91.84
5298;BME280;14738;42.668;23.250;2023-04-19T06:08:17;48479.63;;;-141.90;91.29
5298;BME280;14738;42.668;23.250;2023-04-19T06:10:43;48461.78;;;-141.90;91.15
5298;BME280;14738;42.668;23.250;2023-04-19T06:13:11;48461.78;;;-141.90;90.94
5298;BME280;14738;42.668;23.250;2023-04-19T06:15:36;48489.56;;;-141.90;89.19
5298;BME280;14738;42.668;23.250;2023-04-19T06:18:04;48469.72;;;-141.90;89.15
5298;BME280;14738;42.668;23.250;2023-04-19T06:20:37;48485.59;;;-141.90;87.70
5298;BME280;14738;42.668;23.250;2023-04-19T06:23:03;48465.75;;;-141.90;87.46
5298;BME280;14738;42.668;23.250;2023-04-19T06:25:29;48469.72;;;-141.90;87.68
5298;BME280;14738;42.668;23.250;2023-04-19T06:27:55;48461.78;;;-141.90;88.17
5298;BME280;14738;42.668;23.250;2023-04-19T06:30:20;48483.59;;;-141.90;87.70
5298;BME280;14738;42.668;23.250;2023-04-19T06:32:46;48465.75;;;-141.90;83.63
5298;BME280;14738;42.668;23.250;2023-04-19T06:35:11;48461.78;;;-141.90;84.16
5298;BME280;14738;42.668;23.250;2023-04-19T06:37:36;48449.84;;;-141.90;82.26
5298;BME280;14738;42.668;23.250;2023-04-19T06:40:02;48475.66;;;-141.90;83.93
5298;BME280;14738;42.668;23.250;2023-04-19T06:42:29;48445.88;;;-141.90;82.92
5298;BME280;14738;42.668;23.250;2023-04-19T06:44:55;48447.88;;;-141.90;82.64
5298;BME280;14738;42.668;23.250;2023-04-19T06:47:21;48485.59;;;-141.90;82.29
5298;BME280;14738;42.668;23.250;2023-04-19T06:49:47;48473.69;;;-141.90;81.75
5298;BME280;14738;42.668;23.250;2023-04-19T06:52:12;48467.72;;;-141.90;80.39
5298;BME280;14738;42.668;23.250;2023-04-19T06:54:37;48491.56;;;-141.90;79.96
5298;BME280;14738;42.668;23.250;2023-04-19T06:57:03;48477.66;;;-141.90;79.77
5298;BME280;14738;42.668;23.250;2023-04-19T06:59:28;48465.75;;;-141.90;79.92
5298;BME280;14738;42.668;23.250;2023-04-19T07:01:56;48426.03;;;-141.90;80.16
5298;BME280;14738;42.668;23.250;2023-04-19T07:04:22;48437.94;;;-141.90;79.47
5298;BME280;14738;42.668;23.250;2023-04-19T07:06:48;48449.84;;;-141.90;80.49
5298;BME280;14738;42.668;23.250;2023-04-19T07:09:14;48453.81;;;-141.90;80.77
5298;BME280;14738;42.668;23.250;2023-04-19T07:11:39;48447.88;;;-141.90;79.54
5298;BME280;14738;42.668;23.250;2023-04-19T07:14:05;48435.97;;;-141.90;81.64
5298;BME280;14738;42.668;23.250;2023-04-19T07:16:31;48459.78;;;-141.90;80.98
5298;BME280;14738;42.668;23.250;2023-04-19T07:18:57;48457.81;;;-141.90;80.03
5298;BME280;14738;42.668;23.250;2023-04-19T07:21:22;48463.75;;;-141.90;78.66
5298;BME280;14738;42.668;23.250;2023-04-19T07:23:50;48489.56;;;-141.90;79.58
5298;BME280;14738;42.668;23.250;2023-04-19T07:26:16;48475.66;;;-141.90;78.57
5298;BME280;14738;42.668;23.250;2023-04-19T07:28:41;48457.81;;;-141.90;79.56
5298;BME280;14738;42.668;23.250;2023-04-19T07:31:07;48441.91;;;-141.90;79.47
5298;BME280;14738;42.668;23.250;2023-04-19T07:33:32;48465.75;;;-141.90;79.61
5298;BME280;14738;42.668;23.250;2023-04-19T07:35:58;48465.75;;;-141.90;79.77
5298;BME280;14738;42.668;23.250;2023-04-19T07:38:23;48463.75;;;-141.90;79.01
5298;BME280;14738;42.668;23.250;2023-04-19T07:40:49;48449.84;;;-141.90;78.31
5298;BME280;14738;42.668;23.250;2023-04-19T07:43:15;48453.81;;;-141.90;78.86
5298;BME280;14738;42.668;23.250;2023-04-19T07:45:40;48465.75;;;-141.90;78.29
5298;BME280;14738;42.668;23.250;2023-04-19T07:48:06;48457.81;;;-141.90;78.75
5298;BME280;14738;42.668;23.250;2023-04-19T07:50:31;48485.59;;;-141.90;80.19
5298;BME280;14738;42.668;23.250;2023-04-19T07:52:57;48463.75;;;-141.90;79.87
5298;BME280;14738;42.668;23.250;2023-04-19T07:55:22;48465.75;;;-141.90;79.49
5298;BME280;14738;42.668;23.250;2023-04-19T07:57:48;48433.97;;;-141.90;79.62
5298;BME280;14738;42.668;23.250;2023-04-19T08:00:14;48441.91;;;-141.90;79.80
5298;BME280;14738;42.668;23.250;2023-04-19T08:02:43;48469.72;;;-141.90;78.69
5298;BME280;14738;42.668;23.250;2023-04-19T08:05:10;48443.91;;;-141.90;77.59
5298;BME280;14738;42.668;23.250;2023-04-19T08:07:35;48457.81;;;-141.90;75.82
5298;BME280;14738;42.668;23.250;2023-04-19T08:10:01;48473.69;;;-141.90;75.03
5298;BME280;14738;42.668;23.250;2023-04-19T08:12:26;48479.63;;;-141.90;75.48
5298;BME280;14738;42.668;23.250;2023-04-19T08:14:52;48451.84;;;-141.90;74.16
5298;BME280;14738;42.668;23.250;2023-04-19T08:17:17;48467.72;;;-141.90;75.45
5298;BME280;14738;42.668;23.250;2023-04-19T08:19:46;48461.78;;;-141.90;76.16
5298;BME280;14738;42.668;23.250;2023-04-19T08:22:14;48459.78;;;-141.90;75.26
5298;BME280;14738;42.668;23.250;2023-04-19T08:24:40;48441.91;;;-141.90;74.33
5298;BME280;14738;42.668;23.250;2023-04-19T08:27:05;48467.72;;;-141.90;75.49
5298;BME280;14738;42.668;23.250;2023-04-19T08:29:30;48449.84;;;-141.90;75.00
5298;BME280;14738;42.668;23.250;2023-04-19T08:31:57;48477.66;;;-141.90;75.56
5298;BME280;14738;42.668;23.250;2023-04-19T08:34:23;48487.56;;;-141.90;72.79
5298;BME280;14738;42.668;23.250;2023-04-19T08:36:48;48475.66;;;-141.90;72.38
5298;BME280;14738;42.668;23.250;2023-04-19T08:39:13;48501.47;;;-141.90;72.00
5298;BME280;14738;42.668;23.250;2023-04-19T08:41:39;48473.69;;;-141.90;70.82
5298;BME280;14738;42.668;23.250;2023-04-19T08:44:05;48469.72;;;-141.90;71.42
5298;BME280;14738;42.668;23.250;2023-04-19T08:46:31;48453.81;;;-141.90;70.47
5298;BME280;14738;42.668;23.250;2023-04-19T08:48:58;48487.56;;;-141.90;69.48
5298;BME280;14738;42.668;23.250;2023-04-19T08:51:24;48432.00;;;-141.90;67.09
5298;BME280;14738;42.668;23.250;2023-04-19T08:53:51;48467.72;;;-141.90;68.93
5298;BME280;14738;42.668;23.250;2023-04-19T08:56:16;48435.97;;;-141.90;68.62
5298;BME280;14738;42.668;23.250;2023-04-19T08:58:42;48475.66;;;-141.90;68.31
5298;BME280;14738;42.668;23.250;2023-04-19T09:01:07;48473.69;;;-141.90;66.86
5298;BME280;14738;42.668;23.250;2023-04-19T09:03:34;48473.69;;;-141.90;45.43
5298;BME280;14738;42.668;23.250;2023-04-19T09:06:00;48489.56;;;-141.90;45.16
5298;BME280;14738;42.668;23.250;2023-04-19T09:08:28;48437.94;;;-141.90;43.72
5298;BME280;14738;42.668;23.250;2023-04-19T09:10:56;48477.66;;;-141.90;43.42
5298;BME280;14738;42.668;23.250;2023-04-19T09:13:22;48479.63;;;-141.90;42.97
5298;BME280;14738;42.668;23.250;2023-04-19T09:15:48;48473.69;;;-141.90;42.38
5298;BME280;14738;42.668;23.250;2023-04-19T09:18:13;48487.56;;;-141.90;43.11
5298;BME280;14738;42.668;23.250;2023-04-19T09:20:40;48473.69;;;-141.90;42.22
5298;BME280;14738;42.668;23.250;2023-04-19T09:23:07;48443.91;;;-141.90;41.46
5298;BME280;14738;42.668;23.250;2023-04-19T09:25:33;48467.72;;;-141.90;41.57
5298;BME280;14738;42.668;23.250;2023-04-19T09:28:13;48469.72;;;-141.90;42.15
5298;BME280;14738;42.668;23.250;2023-04-19T09:30:39;48465.75;;;-141.90;41.26
5298;BME280;14738;42.668;23.250;2023-04-19T09:33:05;48501.47;;;-141.90;40.94
5298;BME280;14738;42.668;23.250;2023-04-19T09:35:42;48483.59;;;-141.90;41.13
5298;BME280;14738;42.668;23.250;2023-04-19T09:38:08;48469.72;;;-141.90;40.49
5298;BME280;14738;42.668;23.250;2023-04-19T09:40:34;48469.72;;;-141.90;41.04
5298;BME280;14738;42.668;23.250;2023-04-19T09:43:01;48487.56;;;-141.90;40.44
5298;BME280;14738;42.668;23.250;2023-04-19T09:45:26;48489.56;;;-141.90;41.53
5298;BME280;14738;42.668;23.250;2023-04-19T09:48:04;48477.66;;;-141.90;40.20
5298;BME280;14738;42.668;23.250;2023-04-19T09:50:31;48477.66;;;-141.90;39.72
5298;BME280;14738;42.668;23.250;2023-04-19T09:52:56;48475.66;;;-141.90;41.34
5298;BME280;14738;42.668;23.250;2023-04-19T09:55:22;48481.63;;;-141.90;41.36
5298;BME280;14738;42.668;23.250;2023-04-19T09:57:48;48443.91;;;-141.90;41.21
5298;BME280;14738;42.668;23.250;2023-04-19T10:00:13;48465.75;;;-141.90;42.98
5298;BME280;14738;42.668;23.250;2023-04-19T10:02:43;48485.59;;;-141.90;42.91
5298;BME280;14738;42.668;23.250;2023-04-19T10:05:14;48489.56;;;-141.90;42.05
5298;BME280;14738;42.668;23.250;2023-04-19T10:07:39;48453.81;;;-141.90;42.11
5298;BME280;14738;42.668;23.250;2023-04-19T10:10:06;48465.75;;;-141.90;41.40
5298;BME280;14738;42.668;23.250;2023-04-19T10:12:34;48457.81;;;-141.90;40.72
5298;BME280;14738;42.668;23.250;2023-04-19T10:15:00;48481.63;;;-141.90;43.62
5298;BME280;14738;42.668;23.250;2023-04-19T10:17:26;48477.66;;;-141.90;40.87
5298;BME280;14738;42.668;23.250;2023-04-19T10:19:56;48473.69;;;-141.90;40.66
5298;BME280;14738;42.668;23.250;2023-04-19T10:22:24;48469.72;;;-141.90;42.64
5298;BME280;14738;42.668;23.250;2023-04-19T10:25:09;48455.81;;;-141.90;43.49
5298;BME280;14738;42.668;23.250;2023-04-19T10:27:35;48493.53;;;-141.90;42.93
5298;BME280;14738;42.668;23.250;2023-04-19T10:30:02;48471.69;;;-141.90;43.10
5298;BME280;14738;42.668;23.250;2023-04-19T10:32:39;48471.69;;;-141.90;42.66
5298;BME280;14738;42.668;23.250;2023-04-19T10:35:21;48469.72;;;-141.90;43.61
5298;BME280;14738;42.668;23.250;2023-04-19T10:38:11;48461.78;;;-141.90;40.82
5298;BME280;14738;42.668;23.250;2023-04-19T10:43:31;48459.78;;;-141.90;41.14
5298;BME280;14738;42.668;23.250;2023-04-19T10:46:09;48481.63;;;-141.90;41.18
5298;BME280;14738;42.668;23.250;2023-04-19T10:48:51;48481.63;;;-141.90;40.23
5298;BME280;14738;42.668;23.250;2023-04-19T10:51:19;48489.56;;;-141.90;39.37
5298;BME280;14738;42.668;23.250;2023-04-19T10:53:50;48465.75;;;-141.90;39.85
5298;BME280;14738;42.668;23.250;2023-04-19T10:56:18;48481.63;;;-141.90;40.38
5298;BME280;14738;42.668;23.250;2023-04-19T11:01:53;48459.78;;;-141.90;41.61
5298;BME280;14738;42.668;23.250;2023-04-19T11:04:56;48461.78;;;-141.90;40.27
5298;BME280;14738;42.668;23.250;2023-04-19T11:07:08;48489.56;;;-141.90;40.90
5298;BME280;14738;42.668;23.250;2023-04-19T11:09:39;48449.84;;;-141.90;40.72
5298;BME280;14738;42.668;23.250;2023-04-19T11:12:11;48449.84;;;-141.90;41.42
5298;BME280;14738;42.668;23.250;2023-04-19T11:14:40;48457.81;;;-141.90;40.49
5298;BME280;14738;42.668;23.250;2023-04-19T11:19:51;48461.78;;;-141.90;40.43
5298;BME280;14738;42.668;23.250;2023-04-19T11:22:17;48477.66;;;-141.90;40.57
5298;BME280;14738;42.668;23.250;2023-04-19T11:24:45;48485.59;;;-141.90;40.37
5298;BME280;14738;42.668;23.250;2023-04-19T11:27:12;48441.91;;;-141.90;40.94
5298;BME280;14738;42.668;23.250;2023-04-19T11:29:38;48479.63;;;-141.90;40.63
5298;BME280;14738;42.668;23.250;2023-04-19T11:32:03;48477.66;;;-141.90;41.07
5298;BME280;14738;42.668;23.250;2023-04-19T11:34:34;48465.75;;;-141.90;40.09
5298;BME280;14738;42.668;23.250;2023-04-19T11:37:00;48481.63;;;-141.90;40.39
5298;BME280;14738;42.668;23.250;2023-04-19T11:39:25;48465.75;;;-141.90;39.72
5298;BME280;14738;42.668;23.250;2023-04-19T11:41:51;48485.59;;;-141.90;37.73
5298;BME280;14738;42.668;23.250;2023-04-19T11:44:17;48485.59;;;-141.90;34.97
5298;BME280;14738;42.668;23.250;2023-04-19T11:47:03;48469.72;;;-141.90;36.59
5298;BME280;14738;42.668;23.250;2023-04-19T11:49:31;48497.50;;;-141.90;35.32
5298;BME280;14738;42.668;23.250;2023-04-19T11:51:58;48495.53;;;-141.90;35.18
5298;BME280;14738;42.668;23.250;2023-04-19T11:54:24;48497.50;;;-141.90;35.05
5298;BME280;14738;42.668;23.250;2023-04-19T11:57:04;48485.59;;;-141.90;36.02
5298;BME280;14738;42.668;23.250;2023-04-19T11:59:32;48475.66;;;-141.90;36.00
5298;BME280;14738;42.668;23.250;2023-04-19T12:02:09;48497.50;;;-141.90;35.69
5298;BME280;14738;42.668;23.250;2023-04-19T12:04:36;48445.88;;;-141.90;36.88
5298;BME280;14738;42.668;23.250;2023-04-19T12:07:02;48473.69;;;-141.90;38.68
5298;BME280;14738;42.668;23.250;2023-04-19T12:09:28;48459.78;;;-141.90;37.55
5298;BME280;14738;42.668;23.250;2023-04-19T12:11:54;48457.81;;;-141.90;38.21
5298;BME280;14738;42.668;23.250;2023-04-19T12:14:22;48457.81;;;-141.90;37.34
5298;BME280;14738;42.668;23.250;2023-04-19T12:17:10;48475.66;;;-141.90;36.96
5298;BME280;14738;42.668;23.250;2023-04-19T12:19:46;48469.72;;;-141.90;37.43
5298;BME280;14738;42.668;23.250;2023-04-19T12:22:16;48453.81;;;-141.90;37.93
5298;BME280;14738;42.668;23.250;2023-04-19T12:24:46;48481.63;;;-141.90;35.47
5298;BME280;14738;42.668;23.250;2023-04-19T12:27:11;48463.75;;;-141.90;36.38
5298;BME280;14738;42.668;23.250;2023-04-19T12:29:37;48465.75;;;-141.90;35.93
5298;BME280;14738;42.668;23.250;2023-04-19T12:32:03;48461.78;;;-141.90;36.46
5298;BME280;14738;42.668;23.250;2023-04-19T12:34:29;48479.63;;;-141.90;36.16
5298;BME280;14738;42.668;23.250;2023-04-19T12:36:55;48479.63;;;-141.90;36.71
5298;BME280;14738;42.668;23.250;2023-04-19T12:39:20;48465.75;;;-141.90;37.11
5298;BME280;14738;42.668;23.250;2023-04-19T12:41:45;48493.53;;;-141.90;36.60
5298;BME280;14738;42.668;23.250;2023-04-19T12:44:14;48489.56;;;-141.90;35.71
5298;BME280;14738;42.668;23.250;2023-04-19T12:46:40;48451.84;;;-141.90;36.11